Portada
METAR-TAF:

METAR-TAF

Aeroports :

Massena, Nova York, Estats Units d'Amèrica

latitud: 44-56-09N, longitud: 074-50-44W, altitud: 66 m

Observació

L'informe es va fer fa 59 minuts, a les 02:53 UTC
Vent 3 kt del Nord
Temperatura 19°C
Humitat 60%
Pressió 1014 hPa
Visibilitat: 16.1 km
Cel ennuvolat a una alçada de 10000 ft

METAR: KMSS 050253Z AUTO 35003KT 10SM BKN100 19/11 A2995 RMK AO2 SLP140 T01890106 51007

Hora: 23:52 (03:52 UTC)

Pronòstic

L'informe es va fer fa 4 hores i 20 minuts, a les 23:32 UTC
Pronòstic vàlid del 05 a les 00 UTC al 05 a les 24 UTC
Vent 5 kt amb direcció variable
Visibilitat: 10 km
Cel ennuvolat a una alçada de 11000 ft
A partir de les 05 a les 1800 UTC
Vent 11 kt del Oest amb ràfegues de 18 kt
Visibilitat: 10 km
Núvols disperses a una alçada de 9000 ft
xàfecs en les proximitats

TAF: KMSS 042332Z 0500/0524 VRB05KT P6SM BKN110 FM051800 26011G18KT P6SM VCSH SCT090

Observacions i pronòstics meteorològics de més de 4000 aeroports (METAR i TAF).

Les estacions disponibles són els punts grocs i vermells al mapa.

Posi el ratolí al punt desitjat per veure el nom de l'estació.

Feu clic per veure les observacions i els pronòstics meteorològics.

Per canviar el mapa: feu clic els botons verds amb una creu de color negre per apropar; al botó verd amb un guió per allunyar la imatge; o en les fletxes verdes per a mapes adjacents.


METAR-TAF: